Time;durP1;ratioP1;P1;durP2;ratioP2;P2;SDS_P1;SDS_P2;PMS_P1;PMS_P2;Temp;Humidity;BMP_temperature;BMP_pressure;BME280_temperature;BME280_humidity;BME280_pressure;Samples;Min_cycle;Max_cycle;Signal;HPM_P1;HPM_P2
2023/04/27 00:02:23;;;;;;;9.85;3.95;;;;;;;;;;4990808;28;20029;-72
2023/04/27 00:04:48;;;;;;;7.20;3.20;;;;;;;;;;4992206;28;20026;-73
2023/04/27 00:07:13;;;;;;;9.30;3.72;;;;;;;;;;4992452;28;20160;-71
2023/04/27 00:09:39;;;;;;;10.10;3.60;;;;;;;;;;4991758;28;20046;-71
2023/04/27 00:12:05;;;;;;;11.18;3.78;;;;;;;;;;4991478;28;20026;-71
2023/04/27 00:14:30;;;;;;;9.40;3.78;;;;;;;;;;4990276;28;20118;-71
2023/04/27 00:16:55;;;;;;;6.55;3.40;;;;;;;;;;4980842;28;20122;-73
2023/04/27 00:19:21;;;;;;;10.40;3.72;;;;;;;;;;4980497;28;20022;-71
2023/04/27 00:21:46;;;;;;;10.77;3.70;;;;;;;;;;4990658;28;20022;-71
2023/04/27 00:24:11;;;;;;;10.15;4.22;;;;;;;;;;4990933;28;20116;-71
2023/04/27 00:26:37;;;;;;;11.00;3.57;;;;;;;;;;4991484;28;20105;-71
2023/04/27 00:29:02;;;;;;;8.83;3.57;;;;;;;;;;4985165;28;20046;-71
2023/04/27 00:31:27;;;;;;;11.90;3.53;;;;;;;;;;4984380;28;20111;-72
2023/04/27 00:33:52;;;;;;;10.07;3.70;;;;;;;;;;4987257;28;20394;-70
2023/04/27 00:36:17;;;;;;;9.00;3.78;;;;;;;;;;4988508;28;20072;-70
2023/04/27 00:38:42;;;;;;;10.82;3.70;;;;;;;;;;4990798;28;20037;-71
2023/04/27 00:41:08;;;;;;;9.88;3.65;;;;;;;;;;4990144;28;20394;-71
2023/04/27 00:43:40;;;;;;;7.73;3.40;;;;;;;;;;4988602;28;20049;-73
2023/04/27 00:46:05;;;;;;;8.43;3.47;;;;;;;;;;4985263;28;20026;-73
2023/04/27 00:48:30;;;;;;;10.23;3.53;;;;;;;;;;4991517;28;20018;-72
2023/04/27 00:50:56;;;;;;;10.00;4.45;;;;;;;;;;4982030;28;20030;-78
2023/04/27 00:53:21;;;;;;;7.87;3.77;;;;;;;;;;4996632;28;20496;-71
2023/04/27 00:55:46;;;;;;;9.47;3.43;;;;;;;;;;4996810;28;20027;-71
2023/04/27 00:58:11;;;;;;;7.43;3.63;;;;;;;;;;4989430;28;20037;-74
2023/04/27 01:00:37;;;;;;;7.47;3.67;;;;;;;;;;4986699;28;20552;-72
2023/04/27 01:03:03;;;;;;;10.27;4.10;;;;;;;;;;4983521;28;20470;-71
2023/04/27 01:05:29;;;;;;;8.25;3.97;;;;;;;;;;4984287;28;20026;-73
2023/04/27 01:07:54;;;;;;;9.77;4.20;;;;;;;;;;4987812;28;20464;-70
2023/04/27 01:10:19;;;;;;;8.97;3.47;;;;;;;;;;4990546;28;20446;-71
2023/04/27 01:12:45;;;;;;;9.20;3.70;;;;;;;;;;4980582;28;21194;-69
2023/04/27 01:15:10;;;;;;;8.77;4.30;;;;;;;;;;4986936;28;20061;-73
2023/04/27 01:17:35;;;;;;;9.07;3.70;;;;;;;;;;4992914;28;20383;-70
2023/04/27 01:20:01;;;;;;;9.48;3.92;;;;;;;;;;4987710;28;20025;-72
2023/04/27 01:22:26;;;;;;;9.07;3.90;;;;;;;;;;4981475;28;20022;-70
2023/04/27 01:24:52;;;;;;;9.18;3.80;;;;;;;;;;4985108;28;20026;-71
2023/04/27 01:27:17;;;;;;;10.20;3.95;;;;;;;;;;4988015;28;20026;-70
2023/04/27 01:29:43;;;;;;;8.20;3.83;;;;;;;;;;4983119;28;20031;-71
2023/04/27 01:32:08;;;;;;;10.13;4.05;;;;;;;;;;4987233;28;20097;-72
2023/04/27 01:34:33;;;;;;;9.60;3.70;;;;;;;;;;4979154;28;20034;-70
2023/04/27 01:36:58;;;;;;;10.68;3.85;;;;;;;;;;4981979;28;20055;-71
2023/04/27 01:39:24;;;;;;;10.13;3.87;;;;;;;;;;4987270;28;20034;-70
2023/04/27 01:41:49;;;;;;;8.27;3.80;;;;;;;;;;4985621;28;20113;-70
2023/04/27 01:44:15;;;;;;;10.52;3.83;;;;;;;;;;4980729;28;20466;-71
2023/04/27 01:46:40;;;;;;;15.32;3.92;;;;;;;;;;4985103;28;20062;-74
2023/04/27 01:49:05;;;;;;;8.40;3.35;;;;;;;;;;4976159;28;20022;-72
2023/04/27 01:51:31;;;;;;;9.57;3.60;;;;;;;;;;4982451;28;20031;-72
2023/04/27 01:53:57;;;;;;;8.50;3.97;;;;;;;;;;4980603;28;20034;-73
2023/04/27 01:56:22;;;;;;;8.30;3.47;;;;;;;;;;4982049;28;20045;-71
2023/04/27 01:58:47;;;;;;;7.80;3.47;;;;;;;;;;4983147;28;20023;-71
2023/04/27 02:01:12;;;;;;;7.60;3.38;;;;;;;;;;4985939;28;20027;-73
2023/04/27 02:03:37;;;;;;;7.30;3.35;;;;;;;;;;4984560;28;20029;-72
2023/04/27 02:06:02;;;;;;;7.45;3.13;;;;;;;;;;4985002;28;20034;-72
2023/04/27 02:08:28;;;;;;;8.17;3.30;;;;;;;;;;4987996;28;20035;-70
2023/04/27 02:10:53;;;;;;;6.35;3.00;;;;;;;;;;4981745;28;20780;-72
2023/04/27 02:13:18;;;;;;;8.40;3.20;;;;;;;;;;4980226;28;20486;-70
2023/04/27 02:15:43;;;;;;;6.88;3.35;;;;;;;;;;4980533;28;20035;-73
2023/04/27 02:18:09;;;;;;;7.17;3.60;;;;;;;;;;4979181;28;20393;-69
2023/04/27 02:20:34;;;;;;;8.45;3.60;;;;;;;;;;4988562;28;20030;-70
2023/04/27 02:23:01;;;;;;;8.85;3.38;;;;;;;;;;4974151;28;20029;-72
2023/04/27 02:25:26;;;;;;;10.48;3.55;;;;;;;;;;4983714;28;20556;-70
2023/04/27 02:27:51;;;;;;;8.73;3.42;;;;;;;;;;4978672;28;20019;-75
2023/04/27 02:30:16;;;;;;;7.60;3.13;;;;;;;;;;4985683;28;20465;-75
2023/04/27 02:32:41;;;;;;;9.50;3.30;;;;;;;;;;4984262;28;20037;-76
2023/04/27 02:35:07;;;;;;;10.73;3.92;;;;;;;;;;4988537;28;20495;-75
2023/04/27 02:37:32;;;;;;;10.90;4.00;;;;;;;;;;4985214;28;20042;-76
2023/04/27 02:39:58;;;;;;;12.18;3.78;;;;;;;;;;4985838;28;20084;-72
2023/04/27 02:42:23;;;;;;;8.65;3.00;;;;;;;;;;4985719;28;20042;-78
2023/04/27 02:44:48;;;;;;;9.10;3.65;;;;;;;;;;4985848;28;20486;-71
2023/04/27 02:47:13;;;;;;;10.07;3.40;;;;;;;;;;4983313;28;20121;-74
2023/04/27 02:49:38;;;;;;;7.63;3.10;;;;;;;;;;4991235;28;20022;-71
2023/04/27 02:52:04;;;;;;;6.37;3.10;;;;;;;;;;4987678;28;20041;-74
2023/04/27 02:54:30;;;;;;;8.48;3.55;;;;;;;;;;4990225;28;20481;-73
2023/04/27 02:56:55;;;;;;;8.50;3.23;;;;;;;;;;4987843;28;20490;-71
2023/04/27 02:59:20;;;;;;;9.27;3.92;;;;;;;;;;4988158;28;20026;-71
2023/04/27 03:01:45;;;;;;;7.53;3.40;;;;;;;;;;4990803;28;20022;-71
2023/04/27 03:04:12;;;;;;;8.65;3.03;;;;;;;;;;4991875;28;20022;-70
2023/04/27 03:06:37;;;;;;;7.85;3.47;;;;;;;;;;4989956;28;20027;-73
2023/04/27 03:09:03;;;;;;;8.77;3.43;;;;;;;;;;4983568;28;20645;-70
2023/04/27 03:11:28;;;;;;;7.97;3.22;;;;;;;;;;4987214;28;20033;-71
2023/04/27 03:13:53;;;;;;;7.25;3.20;;;;;;;;;;4984999;28;20089;-73
2023/04/27 03:16:18;;;;;;;6.63;3.30;;;;;;;;;;4990131;28;20040;-72
2023/04/27 03:18:44;;;;;;;11.00;3.65;;;;;;;;;;4986286;28;20023;-71
2023/04/27 03:21:09;;;;;;;10.77;3.30;;;;;;;;;;4980400;28;20034;-70
2023/04/27 03:23:35;;;;;;;8.85;3.20;;;;;;;;;;4981202;28;20030;-70
2023/04/27 03:26:04;;;;;;;7.88;3.40;;;;;;;;;;4990112;28;20500;-72
2023/04/27 03:28:30;;;;;;;8.73;3.28;;;;;;;;;;4989868;28;20386;-70
2023/04/27 03:30:55;;;;;;;7.95;3.20;;;;;;;;;;4989702;28;20026;-70
2023/04/27 03:33:20;;;;;;;7.40;2.90;;;;;;;;;;4993334;28;20026;-73
2023/04/27 03:35:53;;;;;;;9.10;3.00;;;;;;;;;;4983461;28;20510;-73
2023/04/27 03:38:18;;;;;;;8.63;3.47;;;;;;;;;;4993128;28;20117;-74
2023/04/27 03:40:43;;;;;;;9.40;3.33;;;;;;;;;;4994339;28;20066;-72
2023/04/27 03:43:08;;;;;;;8.55;3.17;;;;;;;;;;4989786;28;20031;-73
2023/04/27 03:45:33;;;;;;;8.23;3.27;;;;;;;;;;4988325;28;20508;-71
2023/04/27 03:47:59;;;;;;;9.63;3.47;;;;;;;;;;4982263;28;20054;-72
2023/04/27 03:50:24;;;;;;;8.00;2.93;;;;;;;;;;4988804;28;20038;-74
2023/04/27 03:52:49;;;;;;;8.40;3.10;;;;;;;;;;4983987;28;20135;-77
2023/04/27 03:55:14;;;;;;;8.35;3.03;;;;;;;;;;4983316;28;20026;-73
2023/04/27 03:57:40;;;;;;;8.32;3.00;;;;;;;;;;4983507;28;20442;-76
2023/04/27 04:00:10;;;;;;;10.82;3.55;;;;;;;;;;4990120;28;20011;-72
2023/04/27 04:02:35;;;;;;;9.63;3.30;;;;;;;;;;4988416;28;20030;-71
2023/04/27 04:05:00;;;;;;;7.13;3.20;;;;;;;;;;4984583;28;20367;-70
2023/04/27 04:07:25;;;;;;;6.63;2.83;;;;;;;;;;4995773;28;20048;-76
2023/04/27 04:09:50;;;;;;;9.40;3.50;;;;;;;;;;4990559;28;20033;-72
2023/04/27 04:12:16;;;;;;;9.40;4.00;;;;;;;;;;4991977;28;20144;-71
2023/04/27 04:14:41;;;;;;;12.77;2.90;;;;;;;;;;4991869;28;20070;-75
2023/04/27 04:17:08;;;;;;;9.05;3.10;;;;;;;;;;4984139;28;20020;-72
2023/04/27 04:19:33;;;;;;;10.13;3.50;;;;;;;;;;4982403;28;20529;-76
2023/04/27 04:21:58;;;;;;;10.20;3.35;;;;;;;;;;4982553;28;20102;-70
2023/04/27 04:24:23;;;;;;;8.90;2.80;;;;;;;;;;4991429;28;20026;-73
2023/04/27 04:26:49;;;;;;;9.13;3.25;;;;;;;;;;4983248;28;20858;-70
2023/04/27 04:29:14;;;;;;;9.57;3.63;;;;;;;;;;4986021;28;20023;-73
2023/04/27 04:31:39;;;;;;;8.07;3.20;;;;;;;;;;4986070;28;20508;-71
2023/04/27 04:34:04;;;;;;;10.32;3.38;;;;;;;;;;4981940;28;20026;-72
2023/04/27 04:36:30;;;;;;;7.75;3.10;;;;;;;;;;4980560;28;20053;-74
2023/04/27 04:38:56;;;;;;;11.20;3.63;;;;;;;;;;4982443;28;20053;-71
2023/04/27 04:41:22;;;;;;;8.77;3.43;;;;;;;;;;4984844;28;20112;-70
2023/04/27 04:43:48;;;;;;;7.55;3.30;;;;;;;;;;4982133;28;20037;-72
2023/04/27 04:46:13;;;;;;;10.63;3.28;;;;;;;;;;4981501;28;20022;-72
2023/04/27 04:48:38;;;;;;;8.95;3.20;;;;;;;;;;4971504;28;20026;-71
2023/04/27 04:51:04;;;;;;;9.25;3.35;;;;;;;;;;4986036;28;20145;-71
2023/04/27 04:53:30;;;;;;;9.05;3.97;;;;;;;;;;4975279;28;20019;-72
2023/04/27 04:55:55;;;;;;;9.27;3.63;;;;;;;;;;4977709;28;20026;-71
2023/04/27 04:58:20;;;;;;;6.85;3.00;;;;;;;;;;4976100;28;20099;-74
2023/04/27 05:00:45;;;;;;;10.02;3.17;;;;;;;;;;4983829;28;20031;-73
2023/04/27 05:03:10;;;;;;;8.55;3.13;;;;;;;;;;4981203;28;20457;-72
2023/04/27 05:05:35;;;;;;;7.57;3.10;;;;;;;;;;4985845;28;20085;-77
2023/04/27 05:08:01;;;;;;;10.25;3.80;;;;;;;;;;4982672;28;20034;-70
2023/04/27 05:10:26;;;;;;;9.77;3.20;;;;;;;;;;4985678;28;20453;-70
2023/04/27 05:12:51;;;;;;;11.23;4.10;;;;;;;;;;4985252;28;20034;-69
2023/04/27 05:15:16;;;;;;;7.47;3.15;;;;;;;;;;4987019;28;20034;-69
2023/04/27 05:17:42;;;;;;;12.07;3.50;;;;;;;;;;4984122;28;21642;-69
2023/04/27 05:20:08;;;;;;;9.97;3.47;;;;;;;;;;4988946;28;20022;-69
2023/04/27 05:22:33;;;;;;;7.32;3.17;;;;;;;;;;4984643;28;20030;-69
2023/04/27 05:24:58;;;;;;;10.18;3.38;;;;;;;;;;4986036;28;20018;-69
2023/04/27 05:27:23;;;;;;;6.40;3.07;;;;;;;;;;4990269;28;20038;-70
2023/04/27 05:29:49;;;;;;;12.63;3.47;;;;;;;;;;4991369;28;20572;-69
2023/04/27 05:32:14;;;;;;;8.77;3.50;;;;;;;;;;4990928;28;20022;-70
2023/04/27 05:34:39;;;;;;;10.53;3.50;;;;;;;;;;4989158;28;20030;-70
2023/04/27 05:37:05;;;;;;;9.65;3.13;;;;;;;;;;4986377;28;20034;-69
2023/04/27 05:39:30;;;;;;;6.73;3.17;;;;;;;;;;4980202;28;20747;-70
2023/04/27 05:41:56;;;;;;;7.77;2.80;;;;;;;;;;4987064;28;20015;-70
2023/04/27 05:44:24;;;;;;;10.23;3.30;;;;;;;;;;4970987;28;20391;-70
2023/04/27 05:46:49;;;;;;;8.70;3.28;;;;;;;;;;4978216;28;20221;-70
2023/04/27 05:49:14;;;;;;;7.80;2.90;;;;;;;;;;4979406;28;20051;-70
2023/04/27 05:51:40;;;;;;;7.53;3.53;;;;;;;;;;4971641;28;20027;-70
2023/04/27 05:54:06;;;;;;;7.90;2.77;;;;;;;;;;4971430;28;20082;-69
2023/04/27 05:56:31;;;;;;;8.40;2.95;;;;;;;;;;4978482;28;20026;-68
2023/04/27 05:58:57;;;;;;;6.85;3.25;;;;;;;;;;4973304;28;20022;-69
2023/04/27 06:01:22;;;;;;;9.83;3.27;;;;;;;;;;4994054;28;20467;-70
2023/04/27 06:03:47;;;;;;;8.48;3.17;;;;;;;;;;4995549;28;20026;-70
2023/04/27 06:06:12;;;;;;;8.30;3.50;;;;;;;;;;4986100;28;20026;-70
2023/04/27 06:08:38;;;;;;;9.55;2.95;;;;;;;;;;4990678;28;20397;-70
2023/04/27 06:11:03;;;;;;;11.10;3.22;;;;;;;;;;4978932;28;20549;-68
2023/04/27 06:13:29;;;;;;;11.00;3.47;;;;;;;;;;4980162;28;20018;-68
2023/04/27 06:15:54;;;;;;;8.30;3.20;;;;;;;;;;4980605;28;20085;-69
2023/04/27 06:18:19;;;;;;;10.80;3.50;;;;;;;;;;4988084;28;20014;-71
2023/04/27 06:20:45;;;;;;;9.50;3.80;;;;;;;;;;4983407;28;20409;-70
2023/04/27 06:23:10;;;;;;;11.40;4.00;;;;;;;;;;4986262;28;20091;-69
2023/04/27 06:25:37;;;;;;;8.65;3.75;;;;;;;;;;4984935;28;20109;-70
2023/04/27 06:28:03;;;;;;;7.28;3.15;;;;;;;;;;4987130;28;20404;-71
2023/04/27 06:30:28;;;;;;;10.73;3.72;;;;;;;;;;4983331;28;20026;-71
2023/04/27 06:32:53;;;;;;;8.20;3.43;;;;;;;;;;4981876;28;21781;-71
2023/04/27 06:35:18;;;;;;;8.70;3.10;;;;;;;;;;4985488;28;20058;-70
2023/04/27 06:37:43;;;;;;;8.23;2.87;;;;;;;;;;4986073;28;20049;-71
2023/04/27 06:40:09;;;;;;;11.07;3.17;;;;;;;;;;4989541;28;20382;-70
2023/04/27 06:42:35;;;;;;;11.27;3.10;;;;;;;;;;4990968;28;20510;-70
2023/04/27 06:45:00;;;;;;;11.23;3.50;;;;;;;;;;4979756;28;20022;-68
2023/04/27 06:47:26;;;;;;;9.80;3.33;;;;;;;;;;4985689;28;20124;-69
2023/04/27 06:49:51;;;;;;;10.77;3.45;;;;;;;;;;4985279;28;20464;-69
2023/04/27 06:52:16;;;;;;;9.82;3.40;;;;;;;;;;4991156;28;20094;-71
2023/04/27 06:54:41;;;;;;;7.25;3.50;;;;;;;;;;4983549;28;20371;-70
2023/04/27 06:57:07;;;;;;;9.38;3.40;;;;;;;;;;4980057;28;20026;-71
2023/04/27 06:59:32;;;;;;;8.20;3.45;;;;;;;;;;4982808;28;20102;-70
2023/04/27 07:01:57;;;;;;;9.23;3.30;;;;;;;;;;4994887;28;20019;-70
2023/04/27 07:04:22;;;;;;;8.75;3.60;;;;;;;;;;4990695;28;20026;-71
2023/04/27 07:06:47;;;;;;;10.25;3.60;;;;;;;;;;4988802;28;20117;-68
2023/04/27 07:09:12;;;;;;;9.90;3.70;;;;;;;;;;4982395;28;20371;-70
2023/04/27 07:11:38;;;;;;;11.20;3.67;;;;;;;;;;4973964;28;20023;-69
2023/04/27 07:14:03;;;;;;;9.95;3.35;;;;;;;;;;4973656;28;20023;-70
2023/04/27 07:16:28;;;;;;;6.75;3.22;;;;;;;;;;4976627;28;20164;-70
2023/04/27 07:18:53;;;;;;;9.90;3.17;;;;;;;;;;4981796;28;20099;-70
2023/04/27 07:21:18;;;;;;;11.93;3.90;;;;;;;;;;4973790;28;20031;-70
2023/04/27 07:23:45;;;;;;;7.68;2.60;;;;;;;;;;4982669;28;21454;-70
2023/04/27 07:26:10;;;;;;;;;;;;;;;;;;4980138;28;20023;-71
2023/04/27 07:28:35;;;;;;;7.97;3.25;;;;;;;;;;4984850;28;19910;-71
2023/04/27 07:31:03;;;;;;;6.90;3.03;;;;;;;;;;4993381;28;20014;-70
2023/04/27 07:33:29;;;;;;;7.75;3.05;;;;;;;;;;4991454;28;20030;-70
2023/04/27 07:35:55;;;;;;;7.82;2.80;;;;;;;;;;4993148;28;20027;-73
2023/04/27 07:38:20;;;;;;;7.47;3.00;;;;;;;;;;4984092;28;20014;-70
2023/04/27 07:40:46;;;;;;;8.17;3.00;;;;;;;;;;4974651;28;20358;-70
2023/04/27 07:43:11;;;;;;;8.40;3.53;;;;;;;;;;4973038;28;20445;-70
2023/04/27 07:45:38;;;;;;;8.15;3.10;;;;;;;;;;4974328;28;20019;-69
2023/04/27 07:48:03;;;;;;;;;;;;;;;;;;4984836;28;20018;-71
2023/04/27 07:50:30;;;;;;;6.63;3.08;;;;;;;;;;4981398;28;19921;-70
2023/04/27 07:52:55;;;;;;;10.55;3.20;;;;;;;;;;4980788;28;20034;-68
2023/04/27 07:55:22;;;;;;;7.93;3.10;;;;;;;;;;4977407;28;20035;-71
2023/04/27 07:57:47;;;;;;;9.30;3.42;;;;;;;;;;4972786;28;20022;-70
2023/04/27 08:00:12;;;;;;;8.27;3.08;;;;;;;;;;4973637;28;20025;-70
2023/04/27 08:02:37;;;;;;;9.73;3.73;;;;;;;;;;4985614;28;20677;-70
2023/04/27 08:05:03;;;;;;;7.97;3.35;;;;;;;;;;4979687;28;20453;-69
2023/04/27 08:07:28;;;;;;;9.35;3.53;;;;;;;;;;4973497;28;20034;-70
2023/04/27 08:09:53;;;;;;;10.93;3.90;;;;;;;;;;4973351;28;20027;-70
2023/04/27 08:12:19;;;;;;;8.20;3.30;;;;;;;;;;4974691;28;20113;-70
2023/04/27 08:14:44;;;;;;;9.73;3.80;;;;;;;;;;4981029;28;20027;-70
2023/04/27 08:17:10;;;;;;;7.82;3.45;;;;;;;;;;4972723;28;20023;-70
2023/04/27 08:19:35;;;;;;;9.40;3.78;;;;;;;;;;4972946;28;20293;-70
2023/04/27 08:22:00;;;;;;;9.37;3.70;;;;;;;;;;4981580;28;20073;-70
2023/04/27 08:24:25;;;;;;;8.90;3.70;;;;;;;;;;4983845;28;20118;-69
2023/04/27 08:26:50;;;;;;;11.43;4.27;;;;;;;;;;4973484;28;20022;-68
2023/04/27 08:29:16;;;;;;;8.38;3.50;;;;;;;;;;4975890;28;20370;-69
2023/04/27 08:31:41;;;;;;;9.35;3.42;;;;;;;;;;4984597;28;20030;-70
2023/04/27 08:34:06;;;;;;;10.50;3.67;;;;;;;;;;4980067;28;20030;-68
2023/04/27 08:36:31;;;;;;;8.65;3.45;;;;;;;;;;4972822;28;20517;-69
2023/04/27 08:38:56;;;;;;;10.98;3.95;;;;;;;;;;4973109;28;20053;-69
2023/04/27 08:41:22;;;;;;;7.73;3.70;;;;;;;;;;4984228;28;20023;-69
2023/04/27 08:43:50;;;;;;;10.82;3.67;;;;;;;;;;4990549;28;20113;-69
2023/04/27 08:46:20;;;;;;;9.30;3.97;;;;;;;;;;4991874;28;20030;-70
2023/04/27 08:48:45;;;;;;;9.43;4.40;;;;;;;;;;4992259;28;20030;-70
2023/04/27 08:51:13;;;;;;;10.80;4.00;;;;;;;;;;4982998;28;20394;-70
2023/04/27 08:53:44;;;;;;;8.73;4.00;;;;;;;;;;4973028;28;20427;-70
2023/04/27 08:56:09;;;;;;;11.80;4.28;;;;;;;;;;4972187;28;20046;-70
2023/04/27 08:58:35;;;;;;;10.25;4.00;;;;;;;;;;4972343;28;20027;-69
2023/04/27 09:01:03;;;;;;;9.75;3.97;;;;;;;;;;4983998;28;20057;-69
2023/04/27 09:03:28;;;;;;;9.30;4.35;;;;;;;;;;4990513;28;20014;-69
2023/04/27 09:05:54;;;;;;;9.77;4.43;;;;;;;;;;4992390;28;20030;-69
2023/04/27 09:08:20;;;;;;;9.27;4.00;;;;;;;;;;4994263;28;20026;-70
2023/04/27 09:10:46;;;;;;;7.53;3.92;;;;;;;;;;4986734;28;20276;-70
2023/04/27 09:13:11;;;;;;;9.13;4.40;;;;;;;;;;4982564;28;20030;-70
2023/04/27 09:15:40;;;;;;;10.48;4.57;;;;;;;;;;4982071;28;20022;-68
2023/04/27 09:18:05;;;;;;;11.75;4.47;;;;;;;;;;4977160;28;20050;-70
2023/04/27 09:20:30;;;;;;;9.03;4.23;;;;;;;;;;4974870;28;20053;-69
2023/04/27 09:22:57;;;;;;;9.93;3.90;;;;;;;;;;4981959;28;20486;-71
2023/04/27 09:25:30;;;;;;;8.68;4.50;;;;;;;;;;4982995;28;20443;-70
2023/04/27 09:27:56;;;;;;;10.10;4.40;;;;;;;;;;4973389;28;20038;-68
2023/04/27 09:30:21;;;;;;;;;;;;;;;;;;4986982;28;20061;-70
2023/04/27 09:32:51;;;;;;;10.30;4.88;;;;;;;;;;4991047;28;19906;-70
2023/04/27 09:35:30;;;;;;;8.70;3.92;;;;;;;;;;4984235;28;20122;-71
2023/04/27 09:37:55;;;;;;;9.13;4.00;;;;;;;;;;4987827;28;20029;-71
2023/04/27 09:40:30;;;;;;;10.23;4.10;;;;;;;;;;4991076;28;20027;-70
2023/04/27 09:42:56;;;;;;;9.10;3.92;;;;;;;;;;4990331;28;20030;-70
2023/04/27 09:45:22;;;;;;;8.32;3.70;;;;;;;;;;4982361;28;20028;-70
2023/04/27 09:47:47;;;;;;;9.38;3.70;;;;;;;;;;4972190;28;20019;-69
2023/04/27 09:50:13;;;;;;;9.07;3.87;;;;;;;;;;4971666;28;20023;-69
2023/04/27 09:52:38;;;;;;;7.97;3.22;;;;;;;;;;4970954;28;20019;-68
2023/04/27 09:55:05;;;;;;;8.55;3.40;;;;;;;;;;4978450;28;20113;-69
2023/04/27 09:57:31;;;;;;;7.50;3.33;;;;;;;;;;4979524;28;20057;-69
2023/04/27 10:00:09;;;;;;;9.50;3.70;;;;;;;;;;4982929;28;20015;-69
2023/04/27 10:02:48;;;;;;;10.25;3.40;;;;;;;;;;4985915;28;20036;-70
2023/04/27 10:05:29;;;;;;;8.15;4.00;;;;;;;;;;4983739;28;20023;-69
2023/04/27 10:07:54;;;;;;;7.78;3.50;;;;;;;;;;4975282;28;20398;-70
2023/04/27 10:10:19;;;;;;;8.48;3.95;;;;;;;;;;4975360;28;20027;-69
2023/04/27 10:12:54;;;;;;;8.00;4.00;;;;;;;;;;4981253;28;20105;-69
2023/04/27 10:15:24;;;;;;;7.30;4.15;;;;;;;;;;4983301;28;20023;-69
2023/04/27 10:17:51;;;;;;;9.77;4.10;;;;;;;;;;4975323;28;20030;-70
2023/04/27 10:20:27;;;;;;;9.98;4.75;;;;;;;;;;4975027;28;20018;-70
2023/04/27 10:22:52;;;;;;;9.70;3.95;;;;;;;;;;4984390;28;20025;-70
2023/04/27 10:25:20;;;;;;;9.60;4.57;;;;;;;;;;4986425;28;20097;-68
2023/04/27 10:27:51;;;;;;;9.75;4.32;;;;;;;;;;4994444;28;20030;-70
2023/04/27 10:30:17;;;;;;;8.38;4.30;;;;;;;;;;4994637;28;20057;-70
2023/04/27 10:32:50;;;;;;;9.52;4.20;;;;;;;;;;4990229;28;20038;-70
2023/04/27 10:35:15;;;;;;;8.68;4.47;;;;;;;;;;4990007;28;20038;-69
2023/04/27 10:37:41;;;;;;;9.25;4.60;;;;;;;;;;4985784;28;20026;-69
2023/04/27 10:40:09;;;;;;;9.35;4.40;;;;;;;;;;4994358;28;20458;-70
2023/04/27 10:42:34;;;;;;;9.77;4.68;;;;;;;;;;4991250;28;20486;-69
2023/04/27 10:44:59;;;;;;;8.37;4.13;;;;;;;;;;4982353;28;20022;-70
2023/04/27 10:47:34;;;;;;;11.83;4.60;;;;;;;;;;4974576;28;20038;-69
2023/04/27 10:50:00;;;;;;;8.77;4.30;;;;;;;;;;4974381;28;20094;-70
2023/04/27 10:52:25;;;;;;;8.38;3.95;;;;;;;;;;4978153;28;20061;-69
2023/04/27 10:54:50;;;;;;;10.03;4.97;;;;;;;;;;4981921;28;20070;-69
2023/04/27 10:57:15;;;;;;;13.43;4.85;;;;;;;;;;4979363;28;20574;-69
2023/04/27 10:59:50;;;;;;;11.90;5.00;;;;;;;;;;4982194;28;20105;-70
2023/04/27 11:02:16;;;;;;;8.07;4.32;;;;;;;;;;4977629;28;20026;-68
2023/04/27 11:04:41;;;;;;;7.63;4.60;;;;;;;;;;4985390;28;20026;-70
2023/04/27 11:07:07;;;;;;;10.15;5.00;;;;;;;;;;4980115;28;20023;-70
2023/04/27 11:09:33;;;;;;;8.00;4.15;;;;;;;;;;4980529;28;20019;-69
2023/04/27 11:11:59;;;;;;;9.02;4.45;;;;;;;;;;4980655;28;20327;-70
2023/04/27 11:14:24;;;;;;;7.93;4.40;;;;;;;;;;5002105;28;20037;-69
2023/04/27 11:16:50;;;;;;;10.43;4.93;;;;;;;;;;4993695;28;20033;-68
2023/04/27 11:19:15;;;;;;;8.80;4.40;;;;;;;;;;4994007;28;20493;-69
2023/04/27 11:21:41;;;;;;;8.82;4.20;;;;;;;;;;4993439;28;20027;-68
2023/04/27 11:24:06;;;;;;;8.80;4.68;;;;;;;;;;4983619;28;20018;-68
2023/04/27 11:26:32;;;;;;;9.20;4.55;;;;;;;;;;4976062;28;20033;-68
2023/04/27 11:29:05;;;;;;;8.70;4.25;;;;;;;;;;4973572;28;20483;-68
2023/04/27 11:31:39;;;;;;;8.57;4.45;;;;;;;;;;4978493;28;20033;-67
2023/04/27 11:34:05;;;;;;;9.68;4.65;;;;;;;;;;4979094;28;20054;-68
2023/04/27 11:36:31;;;;;;;8.18;4.10;;;;;;;;;;4984677;28;20034;-68
2023/04/27 11:38:57;;;;;;;8.95;4.43;;;;;;;;;;4981623;28;20367;-68
2023/04/27 11:41:31;;;;;;;7.82;4.00;;;;;;;;;;4981338;28;20025;-68
2023/04/27 11:44:02;;;;;;;7.90;3.83;;;;;;;;;;4981659;28;20038;-68
2023/04/27 11:46:28;;;;;;;7.93;4.10;;;;;;;;;;4991592;28;20820;-68
2023/04/27 11:48:59;;;;;;;8.73;4.17;;;;;;;;;;4984808;28;20019;-68
2023/04/27 11:51:25;;;;;;;8.70;4.35;;;;;;;;;;4975573;28;20042;-68
2023/04/27 11:53:51;;;;;;;7.83;3.87;;;;;;;;;;4972641;28;20018;-68
2023/04/27 11:56:16;;;;;;;9.02;4.47;;;;;;;;;;4972548;28;20114;-68
2023/04/27 11:58:43;;;;;;;10.77;4.57;;;;;;;;;;4982422;28;20474;-68
2023/04/27 12:01:09;;;;;;;8.50;4.50;;;;;;;;;;4975965;28;20058;-70
2023/04/27 12:03:35;;;;;;;9.70;4.45;;;;;;;;;;4981033;28;20057;-69
2023/04/27 12:06:00;;;;;;;10.15;4.10;;;;;;;;;;4972905;28;20050;-69
2023/04/27 12:08:25;;;;;;;8.60;4.67;;;;;;;;;;4980497;28;20062;-69
2023/04/27 12:10:50;;;;;;;9.75;4.30;;;;;;;;;;4984540;28;20050;-69
2023/04/27 12:13:16;;;;;;;9.10;4.00;;;;;;;;;;4992211;28;20069;-69
2023/04/27 12:15:41;;;;;;;6.67;3.70;;;;;;;;;;4992631;28;20022;-70
2023/04/27 12:18:07;;;;;;;7.47;3.60;;;;;;;;;;4984481;28;20018;-69
2023/04/27 12:20:35;;;;;;;9.15;3.63;;;;;;;;;;4983651;28;20430;-69
2023/04/27 12:23:00;;;;;;;7.30;3.83;;;;;;;;;;4973426;28;20052;-69
2023/04/27 12:25:25;;;;;;;9.00;4.30;;;;;;;;;;4972510;28;20018;-68
2023/04/27 12:27:51;;;;;;;8.43;4.27;;;;;;;;;;4983786;28;20128;-68
2023/04/27 12:30:16;;;;;;;8.57;4.18;;;;;;;;;;4983962;28;20045;-68
2023/04/27 12:32:41;;;;;;;9.02;4.10;;;;;;;;;;4986106;28;20378;-68
2023/04/27 12:35:08;;;;;;;8.87;3.87;;;;;;;;;;4985569;28;20170;-68
2023/04/27 12:37:33;;;;;;;8.75;4.03;;;;;;;;;;4973114;28;20462;-69
2023/04/27 12:39:58;;;;;;;9.63;4.18;;;;;;;;;;4973638;28;20112;-68
2023/04/27 12:42:23;;;;;;;7.23;4.10;;;;;;;;;;4972130;28;20045;-69
2023/04/27 12:44:49;;;;;;;12.57;4.77;;;;;;;;;;4976935;28;20113;-68
2023/04/27 12:47:15;;;;;;;8.10;4.00;;;;;;;;;;4978781;28;20015;-69
2023/04/27 12:49:40;;;;;;;8.63;4.10;;;;;;;;;;4972223;28;20030;-69
2023/04/27 12:52:05;;;;;;;8.40;4.50;;;;;;;;;;4987043;28;20022;-70
2023/04/27 12:54:30;;;;;;;8.70;4.50;;;;;;;;;;4985678;28;20023;-68
2023/04/27 12:56:55;;;;;;;9.65;4.28;;;;;;;;;;4978118;28;20394;-69
2023/04/27 12:59:21;;;;;;;9.23;4.53;;;;;;;;;;4983617;28;20025;-68
2023/04/27 13:01:46;;;;;;;7.80;4.55;;;;;;;;;;4972036;28;20041;-68
2023/04/27 13:04:16;;;;;;;8.73;4.53;;;;;;;;;;4977711;28;20026;-69
2023/04/27 13:06:41;;;;;;;10.85;4.85;;;;;;;;;;4985401;28;20029;-68
2023/04/27 13:09:06;;;;;;;8.80;4.60;;;;;;;;;;4977473;28;20027;-68
2023/04/27 13:11:31;;;;;;;8.05;4.65;;;;;;;;;;4972574;28;20097;-70
2023/04/27 13:13:57;;;;;;;7.90;4.43;;;;;;;;;;4976403;28;20330;-70
2023/04/27 13:16:24;;;;;;;9.45;4.50;;;;;;;;;;4991186;28;20088;-69
2023/04/27 13:18:51;;;;;;;7.78;4.57;;;;;;;;;;4989656;28;20470;-69
2023/04/27 13:21:16;;;;;;;9.48;4.20;;;;;;;;;;4984054;28;20514;-71
2023/04/27 13:23:41;;;;;;;8.87;5.03;;;;;;;;;;4988017;28;20119;-69
2023/04/27 13:26:06;;;;;;;12.95;5.38;;;;;;;;;;4985427;28;20789;-70
2023/04/27 13:28:31;;;;;;;9.63;5.00;;;;;;;;;;4982927;28;20479;-69
2023/04/27 13:30:57;;;;;;;10.60;5.07;;;;;;;;;;4979567;28;20078;-70
2023/04/27 13:33:22;;;;;;;7.70;4.43;;;;;;;;;;4975492;28;20019;-69
2023/04/27 13:35:47;;;;;;;8.38;4.20;;;;;;;;;;4983255;28;20080;-70
2023/04/27 13:38:12;;;;;;;10.83;4.90;;;;;;;;;;4977488;28;20022;-69
2023/04/27 13:40:37;;;;;;;9.30;4.90;;;;;;;;;;4981490;28;20098;-70
2023/04/27 13:43:02;;;;;;;10.90;5.38;;;;;;;;;;4983169;28;20037;-69
2023/04/27 13:45:28;;;;;;;9.90;5.70;;;;;;;;;;4980883;28;20035;-70
2023/04/27 13:47:53;;;;;;;9.80;5.00;;;;;;;;;;4990906;28;20442;-69
2023/04/27 13:50:18;;;;;;;9.13;5.10;;;;;;;;;;4982625;28;20089;-69
2023/04/27 13:52:44;;;;;;;8.52;5.43;;;;;;;;;;4981732;28;20042;-69
2023/04/27 13:55:09;;;;;;;13.10;5.63;;;;;;;;;;4991073;28;20037;-69
2023/04/27 13:57:34;;;;;;;11.07;5.32;;;;;;;;;;4990625;28;20783;-69
2023/04/27 14:00:00;;;;;;;9.83;4.97;;;;;;;;;;4989653;28;20026;-69
2023/04/27 14:02:26;;;;;;;8.75;5.05;;;;;;;;;;4990287;28;20463;-69
2023/04/27 14:04:51;;;;;;;10.63;5.50;;;;;;;;;;4990830;28;20018;-69
2023/04/27 14:07:17;;;;;;;9.43;5.60;;;;;;;;;;4990665;28;20053;-70
2023/04/27 14:09:43;;;;;;;10.15;5.55;;;;;;;;;;4990639;28;20026;-69
2023/04/27 14:12:08;;;;;;;11.10;5.35;;;;;;;;;;4991186;28;20097;-70
2023/04/27 14:14:34;;;;;;;8.57;5.20;;;;;;;;;;4989856;28;20018;-68
2023/04/27 14:17:00;;;;;;;9.52;5.78;;;;;;;;;;4991071;28;20034;-69
2023/04/27 14:19:26;;;;;;;11.90;5.40;;;;;;;;;;4991277;28;20014;-70
2023/04/27 14:21:51;;;;;;;9.00;5.25;;;;;;;;;;4991070;28;20068;-68
2023/04/27 14:24:16;;;;;;;8.40;4.90;;;;;;;;;;4991255;28;20109;-69
2023/04/27 14:26:42;;;;;;;11.23;5.90;;;;;;;;;;4990865;28;20458;-69
2023/04/27 14:29:08;;;;;;;10.55;5.55;;;;;;;;;;4990995;28;20097;-68
2023/04/27 14:31:33;;;;;;;9.13;4.75;;;;;;;;;;4974263;28;20094;-72
2023/04/27 14:33:59;;;;;;;10.45;5.90;;;;;;;;;;4970661;28;20034;-68